Sister — ZCFW — position and weather

sailwx.info

Track history (hours):
 
Tides and Currents Weather Stations Pressure Air Temp Water Temp Dewpoint Dewpoint Depression Visibility Wind Speed Wind Dir Waves Ship Positions

Sister

Last reported at 2017-Aug-28 23:33 UTC. Time now 2017-Sep-24 21:10 UTC.
Position N 37°02' E 025°05'.
Warning: this ship's position is 26 days out of date.

; draft 2 m.

Type: Other ship. MMSI: 319017300.

Date/timePositionNaut miles runAvg speedWind from/ knotsBaromVisibWave heightAir tempDewpointWater temp
2017-Aug-28 23:33N 37°02' E 025°05'0 4.6
2017-Aug-28 23:30N 37°02' E 025°05'0 0.6
2017-Aug-28 22:58N 37°02' E 025°05'0 0.0
2017-Aug-28 22:28N 37°02' E 025°05'0 0.0
2017-Aug-28 21:58N 37°02' E 025°05'0 0.0
2017-Aug-28 21:28N 37°02' E 025°05'0 0.0
2017-Aug-28 20:58N 37°02' E 025°05'0 0.0
2017-Aug-28 20:28N 37°02' E 025°05'0 0.0
2017-Aug-28 19:58N 37°02' E 025°05'0 0.0
2017-Aug-28 19:28N 37°02' E 025°05'0 0.0
2017-Aug-28 18:58N 37°02' E 025°05'0 0.0
2017-Aug-28 18:28N 37°02' E 025°05'0 0.0
2017-Aug-28 17:58N 37°02' E 025°05'0 0.0
2017-Aug-28 17:28N 37°02' E 025°05'0 0.0
2017-Aug-28 16:55N 37°02' E 025°05'0 0.0
2017-Aug-28 16:28N 37°02' E 025°05'0 0.0
2017-Aug-28 15:58N 37°02' E 025°05'0 0.0
2017-Aug-28 15:28N 37°02' E 025°05'0 0.0
2017-Aug-28 14:58N 37°02' E 025°05'0 0.0
2017-Aug-28 14:25N 37°02' E 025°05'0 0.0
2017-Aug-28 13:58N 37°02' E 025°05'0 0.0
2017-Aug-28 13:28N 37°02' E 025°05'0 0.0
2017-Aug-28 12:55N 37°02' E 025°05'0 0.0
2017-Aug-28 12:25N 37°02' E 025°05'0 0.0
2017-Aug-28 11:58N 37°02' E 025°05'0 0.0
2017-Aug-28 11:28N 37°02' E 025°05'0 0.0
2017-Aug-28 10:58N 37°02' E 025°05'0 0.0
2017-Aug-28 10:28N 37°02' E 025°05'0 0.0
2017-Aug-28 09:58N 37°02' E 025°05'0 0.0
2017-Aug-28 09:28N 37°02' E 025°05'  
2017-Aug-25 07:25N 37°02' E 025°05'7 3.3
2017-Aug-25 05:13N 36°60' E 025°14'1 4.3
2017-Aug-25 04:59N 37°01' E 025°14'0 0.1
2017-Aug-25 04:29N 37°00' E 025°14'0 0.0
2017-Aug-25 03:59N 37°00' E 025°14'0 0.0
2017-Aug-25 03:29N 37°00' E 025°14'0 0.0
2017-Aug-25 02:59N 37°00' E 025°14'0 0.0
2017-Aug-25 02:29N 37°00' E 025°14'0 0.0
2017-Aug-25 01:59N 37°00' E 025°14'0 0.0
2017-Aug-25 01:29N 37°00' E 025°14'0 0.0
2017-Aug-25 00:59N 37°00' E 025°14'0 0.0
2017-Aug-25 00:20N 37°00' E 025°14'0 0.0
2017-Aug-24 23:59N 37°00' E 025°14'0 0.0
2017-Aug-24 23:29N 37°00' E 025°14'0 0.0
2017-Aug-24 22:59N 37°00' E 025°14'0 0.0
2017-Aug-24 22:29N 37°00' E 025°14'0 0.0
2017-Aug-24 21:59N 37°00' E 025°14'0 0.0
2017-Aug-24 21:23N 37°00' E 025°14'0 0.0
2017-Aug-24 20:59N 37°00' E 025°14'0 0.0
2017-Aug-24 20:29N 37°00' E 025°14'0 0.0
2017-Aug-24 19:56N 37°00' E 025°14'0 0.0
2017-Aug-24 19:29N 37°00' E 025°14'0 0.0
2017-Aug-24 18:59N 37°00' E 025°14'0 0.0
2017-Aug-24 18:29N 37°00' E 025°14'0 0.0
2017-Aug-24 17:59N 37°00' E 025°14'0 0.0
2017-Aug-24 17:29N 37°00' E 025°14'0 0.0
2017-Aug-24 16:53N 37°00' E 025°14'0 0.0
2017-Aug-24 16:29N 37°00' E 025°14'0 0.0
2017-Aug-24 15:59N 37°00' E 025°14'0 0.0
2017-Aug-24 15:29N 37°00' E 025°14'542611415.8
2017-Aug-24 15:00N 26°07' W 080°07'0 0.0
2017-Aug-24 14:30N 26°07' W 080°07'0 0.0
2017-Aug-24 14:00N 26°07' W 080°07'54269532.7
2017-Aug-24 13:26N 37°00' E 025°14'0 0.0
2017-Aug-24 12:59N 37°00' E 025°14'0 0.0
2017-Aug-24 12:29N 37°00' E 025°14'0 0.0
2017-Aug-24 11:59N 37°00' E 025°14'0 0.0
2017-Aug-24 11:29N 37°00' E 025°14'0 0.0
2017-Aug-24 10:59N 37°00' E 025°14'0 0.0
2017-Aug-24 10:29N 37°00' E 025°14'0 0.0
2017-Aug-24 09:59N 37°00' E 025°14'0 0.0
2017-Aug-24 09:29N 37°00' E 025°14'0 0.0
2017-Aug-24 08:59N 37°00' E 025°14'0 0.0
2017-Aug-24 08:29N 37°00' E 025°14'0 0.0
2017-Aug-24 07:59N 37°00' E 025°14'0 0.0
2017-Aug-24 07:29N 37°00' E 025°14'0 0.0
2017-Aug-24 06:59N 37°00' E 025°14'0 0.0
2017-Aug-24 06:29N 37°00' E 025°14'0 0.0
2017-Aug-24 05:59N 37°00' E 025°14'0 0.0
2017-Aug-24 05:29N 37°00' E 025°14'0 0.0
2017-Aug-24 04:59N 37°00' E 025°14'0 0.0
2017-Aug-24 04:29N 37°00' E 025°14'0 0.0
2017-Aug-24 03:59N 37°00' E 025°14'0 0.0
2017-Aug-24 03:29N 37°00' E 025°14'0 0.0
2017-Aug-24 02:59N 37°00' E 025°14'0 0.0
2017-Aug-24 02:29N 37°00' E 025°14'0 0.0
2017-Aug-24 01:59N 37°00' E 025°14'0 0.0
2017-Aug-24 01:29N 37°00' E 025°14'0 0.0
2017-Aug-24 00:59N 37°00' E 025°14'0 0.0
2017-Aug-24 00:29N 37°00' E 025°14'0 0.0
2017-Aug-23 23:59N 37°00' E 025°14'0 0.0
2017-Aug-23 23:29N 37°00' E 025°14'0 0.0
2017-Aug-23 22:59N 37°00' E 025°14'0 0.0
2017-Aug-23 22:29N 37°00' E 025°14'0 0.0
2017-Aug-23 21:59N 37°00' E 025°14'0 0.0
2017-Aug-23 21:29N 37°00' E 025°14'0 0.0
2017-Aug-23 20:59N 37°00' E 025°14'0 0.0
2017-Aug-23 20:29N 37°00' E 025°14'0 0.0
2017-Aug-23 19:53N 37°00' E 025°14'0 0.0
2017-Aug-23 19:26N 37°00' E 025°14'0 0.0
2017-Aug-23 18:59N 37°00' E 025°14'0 0.0
2017-Aug-23 18:29N 37°00' E 025°14'0 0.0
2017-Aug-23 17:59N 37°00' E 025°14'0 0.0
2017-Aug-23 17:29N 37°00' E 025°14'0 0.0
2017-Aug-23 16:59N 37°00' E 025°14'0 0.0
2017-Aug-23 16:24N 37°00' E 025°14'0 0.0
2017-Aug-23 16:00N 37°00' E 025°14'0 0.0
2017-Aug-23 15:27N 37°00' E 025°14'0 0.0
2017-Aug-23 15:00N 37°00' E 025°14'0 0.0
2017-Aug-23 14:27N 37°00' E 025°14'0 0.0
2017-Aug-23 13:30N 37°00' E 025°14'0 0.0
2017-Aug-23 13:00N 37°00' E 025°14'0 0.0
2017-Aug-23 12:30N 37°00' E 025°14'0 0.0
2017-Aug-23 12:00N 37°00' E 025°14'0 0.0
2017-Aug-23 11:30N 37°00' E 025°14'0 0.0
2017-Aug-23 11:00N 37°00' E 025°14'0 0.0
2017-Aug-23 10:30N 37°00' E 025°14'0 0.0
2017-Aug-23 09:57N 37°00' E 025°14'0 0.0
2017-Aug-23 09:27N 37°00' E 025°14'0 0.0
2017-Aug-23 09:00N 37°00' E 025°14'0 0.0
2017-Aug-23 08:30N 37°00' E 025°14'0 0.0
2017-Aug-23 08:00N 37°00' E 025°14'0 0.0
2017-Aug-23 07:30N 37°00' E 025°14'0 0.0
2017-Aug-23 06:57N 37°00' E 025°14'0 0.0
2017-Aug-23 06:30N 37°00' E 025°14'0 0.0
2017-Aug-23 06:00N 37°00' E 025°14'0 0.0
2017-Aug-23 05:30N 37°00' E 025°14'0 0.0
2017-Aug-23 05:00N 37°00' E 025°14'0 0.0
2017-Aug-23 04:27N 37°00' E 025°14'0 0.0
2017-Aug-23 04:00N 37°00' E 025°14'0 0.0
2017-Aug-23 03:30N 37°00' E 025°14'0 0.0
2017-Aug-23 03:00N 37°00' E 025°14'0 0.0
2017-Aug-23 02:30N 37°00' E 025°14'0 0.0
2017-Aug-23 02:00N 37°00' E 025°14'0 0.0
2017-Aug-23 01:30N 37°00' E 025°14'0 0.0
2017-Aug-23 01:00N 37°00' E 025°14'0 0.0
2017-Aug-23 00:30N 37°00' E 025°14'0 0.0
2017-Aug-23 00:00N 37°00' E 025°14'0 0.0
2017-Aug-22 23:30N 37°00' E 025°14'0 0.0
2017-Aug-22 23:00N 37°00' E 025°14'0 0.0
2017-Aug-22 22:30N 37°00' E 025°14'0 0.0
2017-Aug-22 22:00N 37°00' E 025°14'0 0.0
2017-Aug-22 21:30N 37°00' E 025°14'0 0.0
2017-Aug-22 20:57N 37°00' E 025°14'0 0.0
2017-Aug-22 20:30N 37°00' E 025°14'0 0.0
2017-Aug-22 20:00N 37°00' E 025°14'0 0.0
2017-Aug-22 19:27N 37°00' E 025°14'0 0.0
2017-Aug-22 18:57N 37°00' E 025°14'0 0.0
2017-Aug-22 18:30N 37°00' E 025°14'0 0.0
2017-Aug-22 17:54N 37°00' E 025°14'0 0.1
2017-Aug-22 17:30N 37°00' E 025°14'0 0.2
2017-Aug-22 16:55N 37°00' E 025°15'0 0.0
2017-Aug-22 16:28N 37°00' E 025°15'0 0.0
2017-Aug-22 15:58N 37°00' E 025°15'0 0.0
2017-Aug-22 15:28N 37°00' E 025°15'0 0.0
2017-Aug-22 14:52N 37°00' E 025°15'0 0.0
2017-Aug-22 14:28N 37°00' E 025°15'0 0.0
2017-Aug-22 13:58N 37°00' E 025°15'0 0.0
2017-Aug-22 13:28N 37°00' E 025°15'0 0.0
2017-Aug-22 12:55N 37°00' E 025°15'0 0.0
2017-Aug-22 12:22N 37°00' E 025°15'0 0.6
2017-Aug-22 11:58N 37°00' E 025°14'0 0.0
2017-Aug-22 11:28N 37°00' E 025°14'0 0.0
2017-Aug-22 10:58N 37°00' E 025°14'0 0.0
2017-Aug-22 10:28N 37°00' E 025°14'0 0.0
2017-Aug-22 09:58N 37°00' E 025°14'0 0.0
2017-Aug-22 09:28N 37°00' E 025°14'0 0.1
2017-Aug-22 09:00N 37°00' E 025°14'2 3.9
2017-Aug-22 08:30N 37°02' E 025°16'1 2.8
2017-Aug-22 08:00N 37°03' E 025°16'0 0.0
2017-Aug-22 07:30N 37°03' E 025°16'0 0.0
2017-Aug-22 07:00N 37°03' E 025°16'0 0.0
2017-Aug-22 06:30N 37°03' E 025°16'0 0.0
2017-Aug-22 06:00N 37°03' E 025°16'0 0.0
2017-Aug-22 05:30N 37°03' E 025°16'0 0.0
2017-Aug-22 05:00N 37°03' E 025°16'0 0.0
2017-Aug-22 04:30N 37°03' E 025°16'0 0.0
2017-Aug-22 04:00N 37°03' E 025°16'0 0.0
2017-Aug-22 03:30N 37°03' E 025°16'0 0.0
2017-Aug-22 03:00N 37°03' E 025°16'0 0.0
2017-Aug-22 02:30N 37°03' E 025°16'0 0.0
2017-Aug-22 02:00N 37°03' E 025°16'0 0.0
2017-Aug-22 01:30N 37°03' E 025°16'0 0.0
2017-Aug-22 01:00N 37°03' E 025°16'0 0.0
2017-Aug-22 00:30N 37°03' E 025°16'0 0.0
2017-Aug-22 00:00N 37°03' E 025°16'0 0.0
2017-Aug-21 23:30N 37°03' E 025°16'0 0.0
2017-Aug-21 22:57N 37°03' E 025°16'0 0.0
2017-Aug-21 22:27N 37°03' E 025°16'0 0.0
2017-Aug-21 21:57N 37°03' E 025°16'0 0.0
2017-Aug-21 21:30N 37°03' E 025°16'0 0.0
2017-Aug-21 20:57N 37°03' E 025°16'0 0.0
2017-Aug-21 20:30N 37°03' E 025°16'0 0.0
2017-Aug-21 20:00N 37°03' E 025°16'0 0.0
2017-Aug-21 19:30N 37°03' E 025°16'0 0.0
2017-Aug-21 19:00N 37°03' E 025°16'0 0.0
2017-Aug-21 18:27N 37°03' E 025°16'0 0.0
2017-Aug-21 18:00N 37°03' E 025°16'0 0.0
2017-Aug-21 17:24N 37°03' E 025°16'0 0.0
2017-Aug-21 17:00N 37°03' E 025°16'0 0.0
2017-Aug-21 16:30N 37°03' E 025°16'0 0.0
2017-Aug-21 16:00N 37°03' E 025°16'0 0.0
2017-Aug-21 15:30N 37°03' E 025°16'0 0.0
2017-Aug-21 15:00N 37°03' E 025°16'0 0.0
2017-Aug-21 14:30N 37°03' E 025°16'0 0.0
2017-Aug-21 14:00N 37°03' E 025°16'0 0.0
2017-Aug-21 13:30N 37°03' E 025°16'0 0.1
2017-Aug-21 13:00N 37°03' E 025°16'1 1.9
2017-Aug-21 12:31N 37°02' E 025°16'1 1.7
2017-Aug-21 11:58N 37°02' E 025°15'0 0.0
2017-Aug-21 11:28N 37°02' E 025°15'0 0.0
2017-Aug-21 10:58N 37°02' E 025°15'0 0.0
2017-Aug-21 10:28N 37°02' E 025°15'1 3.1
2017-Aug-21 10:00N 37°00' E 025°15'6 0.2
2017-Aug-20 08:42N 36°60' E 025°08'3 6.3
2017-Aug-20 08:15N 37°02' E 025°05'0 1.4
2017-Aug-20 07:58N 37°02' E 025°05'0 0.0
2017-Aug-20 07:28N 37°02' E 025°05'0 0.0
2017-Aug-20 06:52N 37°02' E 025°05'0 0.0
2017-Aug-20 06:25N 37°02' E 025°05'0 0.0
2017-Aug-20 05:58N 37°02' E 025°05'0 0.0
2017-Aug-20 05:28N 37°02' E 025°05'0 0.0
2017-Aug-20 04:58N 37°02' E 025°05'0 0.0
2017-Aug-20 04:28N 37°02' E 025°05'0 0.0
2017-Aug-20 03:52N 37°02' E 025°05'0 0.0
2017-Aug-20 03:28N 37°02' E 025°05'0 0.0
2017-Aug-20 02:58N 37°02' E 025°05'0 0.0
2017-Aug-20 02:25N 37°02' E 025°05'0 0.0
2017-Aug-20 01:58N 37°02' E 025°05'0 0.0
2017-Aug-20 01:28N 37°02' E 025°05'0 0.0
2017-Aug-20 00:58N 37°02' E 025°05'0 0.0
2017-Aug-20 00:28N 37°02' E 025°05'0 0.0
2017-Aug-19 23:55N 37°02' E 025°05'0 0.0
2017-Aug-19 23:28N 37°02' E 025°05'0 0.0
2017-Aug-19 22:58N 37°02' E 025°05'0 0.0
2017-Aug-19 22:28N 37°02' E 025°05'0 0.0
2017-Aug-19 21:58N 37°02' E 025°05'0 0.0
2017-Aug-19 21:28N 37°02' E 025°05'0 0.0
2017-Aug-19 20:58N 37°02' E 025°05'0 0.0
2017-Aug-19 20:25N 37°02' E 025°05'0 0.0
2017-Aug-19 19:55N 37°02' E 025°05'0 0.0
2017-Aug-19 19:28N 37°02' E 025°05'0 0.0
2017-Aug-19 18:58N 37°02' E 025°05'0 0.0
2017-Aug-19 18:28N 37°02' E 025°05'0 0.0
2017-Aug-19 17:58N 37°02' E 025°05'0 0.0
2017-Aug-19 17:28N 37°02' E 025°05'0 0.0
2017-Aug-19 16:55N 37°02' E 025°05'0 0.0
2017-Aug-19 16:22N 37°02' E 025°05'0 0.0
2017-Aug-19 15:58N 37°02' E 025°05'0 0.0
2017-Aug-19 15:28N 37°02' E 025°05'0 0.0
2017-Aug-19 14:58N 37°02' E 025°05'0 0.0
2017-Aug-19 13:58N 37°02' E 025°05'0 0.0
2017-Aug-19 13:25N 37°02' E 025°05'0 0.0
2017-Aug-19 12:58N 37°02' E 025°05'0 0.0
2017-Aug-19 12:25N 37°02' E 025°05'0 0.0
2017-Aug-19 11:58N 37°02' E 025°05'0 0.0
2017-Aug-19 11:28N 37°02' E 025°05'0 0.0
2017-Aug-19 10:58N 37°02' E 025°05'0 1.0
2017-Aug-19 10:29N 37°02' E 025°05'0 0.0
2017-Aug-19 09:59N 37°02' E 025°05'0 0.0
2017-Aug-19 09:29N 37°02' E 025°05'0 0.7
2017-Aug-19 09:00N 37°02' E 025°05'0 0.3
2017-Aug-19 08:30N 37°02' E 025°05'0 0.0
2017-Aug-19 08:00N 37°02' E 025°05'0 0.0
2017-Aug-19 07:27N 37°02' E 025°05'0 0.0
2017-Aug-19 07:00N 37°02' E 025°05'0 0.0
2017-Aug-19 06:30N 37°02' E 025°05'0 0.0
2017-Aug-19 06:00N 37°02' E 025°05'0 0.0
2017-Aug-19 05:30N 37°02' E 025°05'0 0.0
2017-Aug-19 05:00N 37°02' E 025°05'0 0.0
2017-Aug-19 04:30N 37°02' E 025°05'0 0.0
2017-Aug-19 04:00N 37°02' E 025°05'0 0.0
2017-Aug-19 03:28N 37°02' E 025°05'0 0.0
2017-Aug-19 02:58N 37°02' E 025°05'0 0.0
2017-Aug-19 02:28N 37°02' E 025°05'0 0.0
2017-Aug-19 01:58N 37°02' E 025°05'0 0.0
2017-Aug-19 01:28N 37°02' E 025°05'0 0.0
2017-Aug-19 00:58N 37°02' E 025°05'0 0.0
2017-Aug-19 00:28N 37°02' E 025°05'0 0.0
2017-Aug-18 23:58N 37°02' E 025°05'  
Track history (hours):
 
Tides and Currents Weather Stations Pressure Air Temp Water Temp Dewpoint Dewpoint Depression Visibility Wind Speed Wind Dir Waves Ship Positions

Sister

Last reported at 2017-Aug-28 23:33 UTC. Time now 2017-Sep-24 21:10 UTC.
Position N 37°02' E 025°05'.
Warning: this ship's position is 26 days out of date.

; draft 2 m.

Type: Other ship. MMSI: 319017300.

Date/timePositionNaut miles runAvg speedWind from/ knotsBaromVisibWave heightAir tempDewpointWater temp
2017-Aug-28 23:33N 37°02' E 025°05'0 4.6
2017-Aug-28 23:30N 37°02' E 025°05'0 0.6
2017-Aug-28 22:58N 37°02' E 025°05'0 0.0
2017-Aug-28 22:28N 37°02' E 025°05'0 0.0
2017-Aug-28 21:58N 37°02' E 025°05'0 0.0
2017-Aug-28 21:28N 37°02' E 025°05'0 0.0
2017-Aug-28 20:58N 37°02' E 025°05'0 0.0
2017-Aug-28 20:28N 37°02' E 025°05'0 0.0
2017-Aug-28 19:58N 37°02' E 025°05'0 0.0
2017-Aug-28 19:28N 37°02' E 025°05'0 0.0
2017-Aug-28 18:58N 37°02' E 025°05'0 0.0
2017-Aug-28 18:28N 37°02' E 025°05'0 0.0
2017-Aug-28 17:58N 37°02' E 025°05'0 0.0
2017-Aug-28 17:28N 37°02' E 025°05'0 0.0
2017-Aug-28 16:55N 37°02' E 025°05'0 0.0
2017-Aug-28 16:28N 37°02' E 025°05'0 0.0
2017-Aug-28 15:58N 37°02' E 025°05'0 0.0
2017-Aug-28 15:28N 37°02' E 025°05'0 0.0
2017-Aug-28 14:58N 37°02' E 025°05'0 0.0
2017-Aug-28 14:25N 37°02' E 025°05'0 0.0
2017-Aug-28 13:58N 37°02' E 025°05'0 0.0
2017-Aug-28 13:28N 37°02' E 025°05'0 0.0
2017-Aug-28 12:55N 37°02' E 025°05'0 0.0
2017-Aug-28 12:25N 37°02' E 025°05'0 0.0
2017-Aug-28 11:58N 37°02' E 025°05'0 0.0
2017-Aug-28 11:28N 37°02' E 025°05'0 0.0
2017-Aug-28 10:58N 37°02' E 025°05'0 0.0
2017-Aug-28 10:28N 37°02' E 025°05'0 0.0
2017-Aug-28 09:58N 37°02' E 025°05'0 0.0
2017-Aug-28 09:28N 37°02' E 025°05'  
2017-Aug-25 07:25N 37°02' E 025°05'7 3.3
2017-Aug-25 05:13N 36°60' E 025°14'1 4.3
2017-Aug-25 04:59N 37°01' E 025°14'0 0.1
2017-Aug-25 04:29N 37°00' E 025°14'0 0.0
2017-Aug-25 03:59N 37°00' E 025°14'0 0.0
2017-Aug-25 03:29N 37°00' E 025°14'0 0.0
2017-Aug-25 02:59N 37°00' E 025°14'0 0.0
2017-Aug-25 02:29N 37°00' E 025°14'0 0.0
2017-Aug-25 01:59N 37°00' E 025°14'0 0.0
2017-Aug-25 01:29N 37°00' E 025°14'0 0.0
2017-Aug-25 00:59N 37°00' E 025°14'0 0.0
2017-Aug-25 00:20N 37°00' E 025°14'0 0.0
2017-Aug-24 23:59N 37°00' E 025°14'0 0.0
2017-Aug-24 23:29N 37°00' E 025°14'0 0.0
2017-Aug-24 22:59N 37°00' E 025°14'0 0.0
2017-Aug-24 22:29N 37°00' E 025°14'0 0.0
2017-Aug-24 21:59N 37°00' E 025°14'0 0.0
2017-Aug-24 21:23N 37°00' E 025°14'0 0.0
2017-Aug-24 20:59N 37°00' E 025°14'0 0.0
2017-Aug-24 20:29N 37°00' E 025°14'0 0.0
2017-Aug-24 19:56N 37°00' E 025°14'0 0.0
2017-Aug-24 19:29N 37°00' E 025°14'0 0.0
2017-Aug-24 18:59N 37°00' E 025°14'0 0.0
2017-Aug-24 18:29N 37°00' E 025°14'0 0.0
2017-Aug-24 17:59N 37°00' E 025°14'0 0.0
2017-Aug-24 17:29N 37°00' E 025°14'0 0.0
2017-Aug-24 16:53N 37°00' E 025°14'0 0.0
2017-Aug-24 16:29N 37°00' E 025°14'0 0.0
2017-Aug-24 15:59N 37°00' E 025°14'0 0.0
2017-Aug-24 15:29N 37°00' E 025°14'542611415.8
2017-Aug-24 15:00N 26°07' W 080°07'0 0.0
2017-Aug-24 14:30N 26°07' W 080°07'0 0.0
2017-Aug-24 14:00N 26°07' W 080°07'54269532.7
2017-Aug-24 13:26N 37°00' E 025°14'0 0.0
2017-Aug-24 12:59N 37°00' E 025°14'0 0.0
2017-Aug-24 12:29N 37°00' E 025°14'0 0.0
2017-Aug-24 11:59N 37°00' E 025°14'0 0.0
2017-Aug-24 11:29N 37°00' E 025°14'0 0.0
2017-Aug-24 10:59N 37°00' E 025°14'0 0.0
2017-Aug-24 10:29N 37°00' E 025°14'0 0.0
2017-Aug-24 09:59N 37°00' E 025°14'0 0.0
2017-Aug-24 09:29N 37°00' E 025°14'0 0.0
2017-Aug-24 08:59N 37°00' E 025°14'0 0.0
2017-Aug-24 08:29N 37°00' E 025°14'0 0.0
2017-Aug-24 07:59N 37°00' E 025°14'0 0.0
2017-Aug-24 07:29N 37°00' E 025°14'0 0.0
2017-Aug-24 06:59N 37°00' E 025°14'0 0.0
2017-Aug-24 06:29N 37°00' E 025°14'0 0.0
2017-Aug-24 05:59N 37°00' E 025°14'0 0.0
2017-Aug-24 05:29N 37°00' E 025°14'0 0.0
2017-Aug-24 04:59N 37°00' E 025°14'0 0.0
2017-Aug-24 04:29N 37°00' E 025°14'0 0.0
2017-Aug-24 03:59N 37°00' E 025°14'0 0.0
2017-Aug-24 03:29N 37°00' E 025°14'0 0.0
2017-Aug-24 02:59N 37°00' E 025°14'0 0.0
2017-Aug-24 02:29N 37°00' E 025°14'0 0.0
2017-Aug-24 01:59N 37°00' E 025°14'0 0.0
2017-Aug-24 01:29N 37°00' E 025°14'0 0.0
2017-Aug-24 00:59N 37°00' E 025°14'0 0.0
2017-Aug-24 00:29N 37°00' E 025°14'0 0.0
2017-Aug-23 23:59N 37°00' E 025°14'0 0.0
2017-Aug-23 23:29N 37°00' E 025°14'0 0.0
2017-Aug-23 22:59N 37°00' E 025°14'0 0.0
2017-Aug-23 22:29N 37°00' E 025°14'0 0.0
2017-Aug-23 21:59N 37°00' E 025°14'0 0.0
2017-Aug-23 21:29N 37°00' E 025°14'0 0.0
2017-Aug-23 20:59N 37°00' E 025°14'0 0.0
2017-Aug-23 20:29N 37°00' E 025°14'0 0.0
2017-Aug-23 19:53N 37°00' E 025°14'0 0.0
2017-Aug-23 19:26N 37°00' E 025°14'0 0.0
2017-Aug-23 18:59N 37°00' E 025°14'0 0.0
2017-Aug-23 18:29N 37°00' E 025°14'0 0.0
2017-Aug-23 17:59N 37°00' E 025°14'0 0.0
2017-Aug-23 17:29N 37°00' E 025°14'0 0.0
2017-Aug-23 16:59N 37°00' E 025°14'0 0.0
2017-Aug-23 16:24N 37°00' E 025°14'0 0.0
2017-Aug-23 16:00N 37°00' E 025°14'0 0.0
2017-Aug-23 15:27N 37°00' E 025°14'0 0.0
2017-Aug-23 15:00N 37°00' E 025°14'0 0.0
2017-Aug-23 14:27N 37°00' E 025°14'0 0.0
2017-Aug-23 13:30N 37°00' E 025°14'0 0.0
2017-Aug-23 13:00N 37°00' E 025°14'0 0.0
2017-Aug-23 12:30N 37°00' E 025°14'0 0.0
2017-Aug-23 12:00N 37°00' E 025°14'0 0.0
2017-Aug-23 11:30N 37°00' E 025°14'0 0.0
2017-Aug-23 11:00N 37°00' E 025°14'0 0.0
2017-Aug-23 10:30N 37°00' E 025°14'0 0.0
2017-Aug-23 09:57N 37°00' E 025°14'0 0.0
2017-Aug-23 09:27N 37°00' E 025°14'0 0.0
2017-Aug-23 09:00N 37°00' E 025°14'0 0.0
2017-Aug-23 08:30N 37°00' E 025°14'0 0.0
2017-Aug-23 08:00N 37°00' E 025°14'0 0.0
2017-Aug-23 07:30N 37°00' E 025°14'0 0.0
2017-Aug-23 06:57N 37°00' E 025°14'0 0.0
2017-Aug-23 06:30N 37°00' E 025°14'0 0.0
2017-Aug-23 06:00N 37°00' E 025°14'0 0.0
2017-Aug-23 05:30N 37°00' E 025°14'0 0.0
2017-Aug-23 05:00N 37°00' E 025°14'0 0.0
2017-Aug-23 04:27N 37°00' E 025°14'0 0.0
2017-Aug-23 04:00N 37°00' E 025°14'0 0.0
2017-Aug-23 03:30N 37°00' E 025°14'0 0.0
2017-Aug-23 03:00N 37°00' E 025°14'0 0.0
2017-Aug-23 02:30N 37°00' E 025°14'0 0.0
2017-Aug-23 02:00N 37°00' E 025°14'0 0.0
2017-Aug-23 01:30N 37°00' E 025°14'0 0.0
2017-Aug-23 01:00N 37°00' E 025°14'0 0.0
2017-Aug-23 00:30N 37°00' E 025°14'0 0.0
2017-Aug-23 00:00N 37°00' E 025°14'0 0.0
2017-Aug-22 23:30N 37°00' E 025°14'0 0.0
2017-Aug-22 23:00N 37°00' E 025°14'0 0.0
2017-Aug-22 22:30N 37°00' E 025°14'0 0.0
2017-Aug-22 22:00N 37°00' E 025°14'0 0.0
2017-Aug-22 21:30N 37°00' E 025°14'0 0.0
2017-Aug-22 20:57N 37°00' E 025°14'0 0.0
2017-Aug-22 20:30N 37°00' E 025°14'0 0.0
2017-Aug-22 20:00N 37°00' E 025°14'0 0.0
2017-Aug-22 19:27N 37°00' E 025°14'0 0.0
2017-Aug-22 18:57N 37°00' E 025°14'0 0.0
2017-Aug-22 18:30N 37°00' E 025°14'0 0.0
2017-Aug-22 17:54N 37°00' E 025°14'0 0.1
2017-Aug-22 17:30N 37°00' E 025°14'0 0.2
2017-Aug-22 16:55N 37°00' E 025°15'0 0.0
2017-Aug-22 16:28N 37°00' E 025°15'0 0.0
2017-Aug-22 15:58N 37°00' E 025°15'0 0.0
2017-Aug-22 15:28N 37°00' E 025°15'0 0.0
2017-Aug-22 14:52N 37°00' E 025°15'0 0.0
2017-Aug-22 14:28N 37°00' E 025°15'0 0.0
2017-Aug-22 13:58N 37°00' E 025°15'0 0.0
2017-Aug-22 13:28N 37°00' E 025°15'0 0.0
2017-Aug-22 12:55N 37°00' E 025°15'0 0.0
2017-Aug-22 12:22N 37°00' E 025°15'0 0.6
2017-Aug-22 11:58N 37°00' E 025°14'0 0.0
2017-Aug-22 11:28N 37°00' E 025°14'0 0.0
2017-Aug-22 10:58N 37°00' E 025°14'0 0.0
2017-Aug-22 10:28N 37°00' E 025°14'0 0.0
2017-Aug-22 09:58N 37°00' E 025°14'0 0.0
2017-Aug-22 09:28N 37°00' E 025°14'0 0.1
2017-Aug-22 09:00N 37°00' E 025°14'2 3.9
2017-Aug-22 08:30N 37°02' E 025°16'1 2.8
2017-Aug-22 08:00N 37°03' E 025°16'0 0.0
2017-Aug-22 07:30N 37°03' E 025°16'0 0.0
2017-Aug-22 07:00N 37°03' E 025°16'0 0.0
2017-Aug-22 06:30N 37°03' E 025°16'0 0.0
2017-Aug-22 06:00N 37°03' E 025°16'0 0.0
2017-Aug-22 05:30N 37°03' E 025°16'0 0.0
2017-Aug-22 05:00N 37°03' E 025°16'0 0.0
2017-Aug-22 04:30N 37°03' E 025°16'0 0.0
2017-Aug-22 04:00N 37°03' E 025°16'0 0.0
2017-Aug-22 03:30N 37°03' E 025°16'0 0.0
2017-Aug-22 03:00N 37°03' E 025°16'0 0.0
2017-Aug-22 02:30N 37°03' E 025°16'0 0.0
2017-Aug-22 02:00N 37°03' E 025°16'0 0.0
2017-Aug-22 01:30N 37°03' E 025°16'0 0.0
2017-Aug-22 01:00N 37°03' E 025°16'0 0.0
2017-Aug-22 00:30N 37°03' E 025°16'0 0.0
2017-Aug-22 00:00N 37°03' E 025°16'0 0.0
2017-Aug-21 23:30N 37°03' E 025°16'0 0.0
2017-Aug-21 22:57N 37°03' E 025°16'0 0.0
2017-Aug-21 22:27N 37°03' E 025°16'0 0.0
2017-Aug-21 21:57N 37°03' E 025°16'0 0.0
2017-Aug-21 21:30N 37°03' E 025°16'0 0.0
2017-Aug-21 20:57N 37°03' E 025°16'0 0.0
2017-Aug-21 20:30N 37°03' E 025°16'0 0.0
2017-Aug-21 20:00N 37°03' E 025°16'0 0.0
2017-Aug-21 19:30N 37°03' E 025°16'0 0.0
2017-Aug-21 19:00N 37°03' E 025°16'0 0.0
2017-Aug-21 18:27N 37°03' E 025°16'0 0.0
2017-Aug-21 18:00N 37°03' E 025°16'0 0.0
2017-Aug-21 17:24N 37°03' E 025°16'0 0.0
2017-Aug-21 17:00N 37°03' E 025°16'0 0.0
2017-Aug-21 16:30N 37°03' E 025°16'0 0.0
2017-Aug-21 16:00N 37°03' E 025°16'0 0.0
2017-Aug-21 15:30N 37°03' E 025°16'0 0.0
2017-Aug-21 15:00N 37°03' E 025°16'0 0.0
2017-Aug-21 14:30N 37°03' E 025°16'0 0.0
2017-Aug-21 14:00N 37°03' E 025°16'0 0.0
2017-Aug-21 13:30N 37°03' E 025°16'0 0.1
2017-Aug-21 13:00N 37°03' E 025°16'1 1.9
2017-Aug-21 12:31N 37°02' E 025°16'1 1.7
2017-Aug-21 11:58N 37°02' E 025°15'0 0.0
2017-Aug-21 11:28N 37°02' E 025°15'0 0.0
2017-Aug-21 10:58N 37°02' E 025°15'0 0.0
2017-Aug-21 10:28N 37°02' E 025°15'1 3.1
2017-Aug-21 10:00N 37°00' E 025°15'6 0.2
2017-Aug-20 08:42N 36°60' E 025°08'3 6.3
2017-Aug-20 08:15N 37°02' E 025°05'0 1.4
2017-Aug-20 07:58N 37°02' E 025°05'0 0.0
2017-Aug-20 07:28N 37°02' E 025°05'0 0.0
2017-Aug-20 06:52N 37°02' E 025°05'0 0.0
2017-Aug-20 06:25N 37°02' E 025°05'0 0.0
2017-Aug-20 05:58N 37°02' E 025°05'0 0.0
2017-Aug-20 05:28N 37°02' E 025°05'0 0.0
2017-Aug-20 04:58N 37°02' E 025°05'0 0.0
2017-Aug-20 04:28N 37°02' E 025°05'0 0.0
2017-Aug-20 03:52N 37°02' E 025°05'0 0.0
2017-Aug-20 03:28N 37°02' E 025°05'0 0.0
2017-Aug-20 02:58N 37°02' E 025°05'0 0.0
2017-Aug-20 02:25N 37°02' E 025°05'0 0.0
2017-Aug-20 01:58N 37°02' E 025°05'0 0.0
2017-Aug-20 01:28N 37°02' E 025°05'0 0.0
2017-Aug-20 00:58N 37°02' E 025°05'0 0.0
2017-Aug-20 00:28N 37°02' E 025°05'0 0.0
2017-Aug-19 23:55N 37°02' E 025°05'0 0.0
2017-Aug-19 23:28N 37°02' E 025°05'0 0.0
2017-Aug-19 22:58N 37°02' E 025°05'0 0.0
2017-Aug-19 22:28N 37°02' E 025°05'0 0.0
2017-Aug-19 21:58N 37°02' E 025°05'0 0.0
2017-Aug-19 21:28N 37°02' E 025°05'0 0.0
2017-Aug-19 20:58N 37°02' E 025°05'0 0.0
2017-Aug-19 20:25N 37°02' E 025°05'0 0.0
2017-Aug-19 19:55N 37°02' E 025°05'0 0.0
2017-Aug-19 19:28N 37°02' E 025°05'0 0.0
2017-Aug-19 18:58N 37°02' E 025°05'0 0.0
2017-Aug-19 18:28N 37°02' E 025°05'0 0.0
2017-Aug-19 17:58N 37°02' E 025°05'0 0.0
2017-Aug-19 17:28N 37°02' E 025°05'0 0.0
2017-Aug-19 16:55N 37°02' E 025°05'0 0.0
2017-Aug-19 16:22N 37°02' E 025°05'0 0.0
2017-Aug-19 15:58N 37°02' E 025°05'0 0.0
2017-Aug-19 15:28N 37°02' E 025°05'0 0.0
2017-Aug-19 14:58N 37°02' E 025°05'0 0.0
2017-Aug-19 13:58N 37°02' E 025°05'0 0.0
2017-Aug-19 13:25N 37°02' E 025°05'0 0.0
2017-Aug-19 12:58N 37°02' E 025°05'0 0.0
2017-Aug-19 12:25N 37°02' E 025°05'0 0.0
2017-Aug-19 11:58N 37°02' E 025°05'0 0.0
2017-Aug-19 11:28N 37°02' E 025°05'0 0.0
2017-Aug-19 10:58N 37°02' E 025°05'0 1.0
2017-Aug-19 10:29N 37°02' E 025°05'0 0.0
2017-Aug-19 09:59N 37°02' E 025°05'0 0.0
2017-Aug-19 09:29N 37°02' E 025°05'0 0.7
2017-Aug-19 09:00N 37°02' E 025°05'0 0.3
2017-Aug-19 08:30N 37°02' E 025°05'0 0.0
2017-Aug-19 08:00N 37°02' E 025°05'0 0.0
2017-Aug-19 07:27N 37°02' E 025°05'0 0.0
2017-Aug-19 07:00N 37°02' E 025°05'0 0.0
2017-Aug-19 06:30N 37°02' E 025°05'0 0.0
2017-Aug-19 06:00N 37°02' E 025°05'0 0.0
2017-Aug-19 05:30N 37°02' E 025°05'0 0.0
2017-Aug-19 05:00N 37°02' E 025°05'0 0.0
2017-Aug-19 04:30N 37°02' E 025°05'0 0.0
2017-Aug-19 04:00N 37°02' E 025°05'0 0.0
2017-Aug-19 03:28N 37°02' E 025°05'0 0.0
2017-Aug-19 02:58N 37°02' E 025°05'0 0.0
2017-Aug-19 02:28N 37°02' E 025°05'0 0.0
2017-Aug-19 01:58N 37°02' E 025°05'0 0.0
2017-Aug-19 01:28N 37°02' E 025°05'0 0.0
2017-Aug-19 00:58N 37°02' E 025°05'0 0.0
2017-Aug-19 00:28N 37°02' E 025°05'0 0.0
2017-Aug-18 23:58N 37°02' E 025°05'  

Dump ship's entire track history